TFL3BM EHAM-GCLP
Flight info
| Callsign | TFL3BM |
|---|---|
| Flight time | N/A |
| Altitude | 40000 |
| Route | IDRID L980 MANGO L620 SAM/N0483F410 M195 LORKU DCT BALDA DCT ABUPI DCT BEXAL DCT SAMAR |
| Aircraft | B788/H-SDE1E2E3FGHIJ2J3J4J5M1RWXY/LB1D1 |
Departure
| Time | 2026-04-30 18:00 |
|---|---|
| Airport | Amsterdam Airport Schiphol (EHAM) |
Arrival
| Time | N/A |
|---|---|
| Airport | Gran Canaria Airport (GCLP) |
| Time | Latitude | Longitude | Altitude | Speed | Heading |
|---|---|---|---|---|---|
| 2026-04-30 17:39 | 52.31154 | 4.75594 | 5 ft | 0 kts | 86° |
| 2026-04-30 17:47 | 52.31147 | 4.75514 | 6 ft | 3 kts | 73° |
| 2026-04-30 17:48 | 52.31143 | 4.75461 | 7 ft | 3 kts | 22° |
| 2026-04-30 17:48 | 52.31197 | 4.75464 | 5 ft | 3 kts | 356° |
| 2026-04-30 17:49 | 52.31279 | 4.75455 | 5 ft | 3 kts | 356° |
| 2026-04-30 17:50 | 52.31311 | 4.75452 | 5 ft | 0 kts | 357° |
| 2026-04-30 17:55 | 52.31321 | 4.75451 | 5 ft | 5 kts | 357° |
| 2026-04-30 17:56 | 52.31509 | 4.75264 | 4 ft | 2 kts | 270° |
| 2026-04-30 17:57 | 52.31493 | 4.74903 | 5 ft | 14 kts | 266° |
| 2026-04-30 17:58 | 52.31591 | 4.74663 | 5 ft | 9 kts | 1° |
| 2026-04-30 17:59 | 52.31668 | 4.74790 | 5 ft | 0 kts | 86° |
| 2026-04-30 18:00 | 52.31733 | 4.76663 | 5 ft | 141 kts | 87° |
| 2026-04-30 18:00 | 52.33041 | 4.81548 | 1746 ft | 215 kts | 30° |
| 2026-04-30 18:01 | 52.36271 | 4.80620 | 3239 ft | 251 kts | 341° |
| 2026-04-30 18:02 | 52.40836 | 4.75610 | 5562 ft | 297 kts | 314° |
| 2026-04-30 18:02 | 52.45287 | 4.68273 | 8556 ft | 307 kts | 313° |
| 2026-04-30 18:03 | 52.46676 | 4.58186 | 10818 ft | 331 kts | 265° |
| 2026-04-30 18:04 | 52.42976 | 4.48002 | 12020 ft | 369 kts | 232° |
| 2026-04-30 18:05 | 52.37110 | 4.33786 | 14778 ft | 385 kts | 230° |
| 2026-04-30 18:06 | 52.30762 | 4.19272 | 17272 ft | 398 kts | 231° |
| 2026-04-30 18:07 | 52.24197 | 4.04404 | 19415 ft | 410 kts | 231° |
| 2026-04-30 18:08 | 52.19135 | 3.92997 | 20776 ft | 418 kts | 231° |
| 2026-04-30 18:09 | 52.12231 | 3.77518 | 22402 ft | 427 kts | 232° |
| 2026-04-30 18:10 | 52.05757 | 3.63091 | 23689 ft | 436 kts | 232° |
| 2026-04-30 18:11 | 51.98533 | 3.47087 | 24800 ft | 443 kts | 231° |
| 2026-04-30 18:11 | 51.93033 | 3.34964 | 25551 ft | 447 kts | 231° |
| 2026-04-30 18:12 | 51.87477 | 3.22778 | 26293 ft | 451 kts | 232° |
| 2026-04-30 18:13 | 51.84819 | 3.13567 | 26750 ft | 460 kts | 255° |
| 2026-04-30 18:13 | 51.83676 | 2.98007 | 27403 ft | 466 kts | 263° |
| 2026-04-30 18:14 | 51.82995 | 2.87620 | 27899 ft | 468 kts | 262° |
| 2026-04-30 18:15 | 51.81937 | 2.71858 | 28578 ft | 473 kts | 262° |
| 2026-04-30 18:15 | 51.80839 | 2.55899 | 29251 ft | 477 kts | 262° |
| 2026-04-30 18:16 | 51.79985 | 2.43669 | 29777 ft | 480 kts | 261° |
| 2026-04-30 18:16 | 51.77163 | 2.00202 | 31297 ft | 493 kts | 262° |
| 2026-04-30 18:17 | 51.75806 | 1.77904 | 32000 ft | 500 kts | 262° |
| 2026-04-30 18:17 | 51.74395 | 1.55424 | 32713 ft | 505 kts | 261° |
| 2026-04-30 18:17 | 51.71478 | 1.10969 | 34955 ft | 497 kts | 261° |
| 2026-04-30 18:18 | 51.69961 | 0.88835 | 36053 ft | 492 kts | 261° |
| 2026-04-30 18:18 | 51.65276 | 0.68987 | 37054 ft | 475 kts | 229° |
| 2026-04-30 18:18 | 51.57447 | 0.52129 | 38000 ft | 475 kts | 233° |
| 2026-04-30 18:18 | 51.49488 | 0.35246 | 38987 ft | 471 kts | 229° |
| 2026-04-30 18:19 | 51.41338 | 0.18701 | 39644 ft | 472 kts | 229° |
| 2026-04-30 18:19 | 51.33129 | 0.02154 | 40208 ft | 475 kts | 229° |
| 2026-04-30 18:19 | 51.24929 | -0.14271 | 40187 ft | 475 kts | 230° |
| 2026-04-30 18:20 | 51.08393 | -0.47090 | 40184 ft | 474 kts | 229° |
| 2026-04-30 18:20 | 50.92404 | -0.78434 | 40156 ft | 473 kts | 229° |
| 2026-04-30 18:21 | 50.75681 | -1.10813 | 40150 ft | 474 kts | 228° |
| 2026-04-30 18:21 | 50.58961 | -1.42789 | 40122 ft | 474 kts | 228° |
| 2026-04-30 18:22 | 50.42100 | -1.74633 | 40111 ft | 473 kts | 228° |
| 2026-04-30 18:22 | 50.14339 | -2.17229 | 40104 ft | 469 kts | 211° |
| 2026-04-30 18:23 | 49.91978 | -2.38497 | 40807 ft | 471 kts | 202° |
| 2026-04-30 18:23 | 49.79752 | -2.46504 | 41092 ft | 478 kts | 203° |
| 2026-04-30 18:23 | 49.55665 | -2.62382 | 41072 ft | 478 kts | 202° |
| 2026-04-30 18:24 | 48.82603 | -3.09513 | 40970 ft | 475 kts | 202° |
| 2026-04-30 18:24 | 48.58525 | -3.24676 | 41233 ft | 467 kts | 203° |
| 2026-04-30 18:25 | 48.34308 | -3.39871 | 41070 ft | 469 kts | 203° |
| 2026-04-30 18:25 | 47.86501 | -3.69277 | 41252 ft | 464 kts | 203° |
| 2026-04-30 18:25 | 47.62293 | -3.83991 | 41045 ft | 468 kts | 202° |
| 2026-04-30 18:26 | 47.14088 | -4.12779 | 41286 ft | 464 kts | 203° |
| 2026-04-30 18:26 | 46.90205 | -4.26831 | 41087 ft | 467 kts | 202° |
| 2026-04-30 18:27 | 46.18134 | -4.68463 | 41181 ft | 464 kts | 203° |
| 2026-04-30 18:27 | 45.94168 | -4.82054 | 41049 ft | 466 kts | 202° |
| 2026-04-30 18:28 | 45.46174 | -5.08875 | 41257 ft | 460 kts | 203° |
| 2026-04-30 18:28 | 45.22483 | -5.21929 | 41050 ft | 463 kts | 203° |
| 2026-04-30 18:28 | 44.89692 | -5.39815 | 41133 ft | 461 kts | 202° |
| 2026-04-30 18:29 | 44.69195 | -5.50889 | 41133 ft | 464 kts | 202° |
| 2026-04-30 18:30 | 44.57228 | -5.57645 | 41133 ft | 463 kts | 205° |
| 2026-04-30 18:31 | 44.48537 | -5.62992 | 41131 ft | 462 kts | 205° |
| 2026-04-30 18:32 | 44.39734 | -5.68417 | 41120 ft | 461 kts | 205° |
| 2026-04-30 18:33 | 44.31004 | -5.73784 | 41164 ft | 459 kts | 204° |
| 2026-04-30 18:33 | 44.25299 | -5.77270 | 41117 ft | 439 kts | 205° |
| 2026-04-30 18:33 | 44.22477 | -5.78999 | 41118 ft | 443 kts | 205° |
| 2026-04-30 18:34 | 44.13895 | -5.84234 | 41135 ft | 457 kts | 205° |
| 2026-04-30 18:35 | 44.08012 | -5.87815 | 41131 ft | 463 kts | 205° |
| 2026-04-30 18:35 | 44.02091 | -5.91409 | 41133 ft | 462 kts | 205° |
| 2026-04-30 18:36 | 43.93262 | -5.96756 | 41132 ft | 461 kts | 205° |
| 2026-04-30 18:37 | 43.84435 | -6.02083 | 41123 ft | 460 kts | 205° |
| 2026-04-30 18:37 | 43.78595 | -6.05598 | 41121 ft | 459 kts | 205° |
| 2026-04-30 18:38 | 43.72731 | -6.09120 | 41133 ft | 460 kts | 204° |
| 2026-04-30 18:38 | 43.66875 | -6.12630 | 41134 ft | 460 kts | 204° |
| 2026-04-30 18:39 | 43.60986 | -6.16152 | 41133 ft | 460 kts | 204° |
| 2026-04-30 18:39 | 43.55109 | -6.19660 | 41132 ft | 461 kts | 204° |
| 2026-04-30 18:40 | 43.49248 | -6.23149 | 41133 ft | 460 kts | 204° |
| 2026-04-30 18:40 | 43.43362 | -6.26647 | 41125 ft | 460 kts | 204° |